sensor_id;sensor_type;location;lat;lon;timestamp;temperature;humidity
2889;DHT22;1453;42.708;23.282;2024-01-16T00:01:57;3.50;99.90
2889;DHT22;1453;42.708;23.282;2024-01-16T00:04:23;3.70;99.90
2889;DHT22;1453;42.708;23.282;2024-01-16T00:06:52;3.60;99.90
2889;DHT22;1453;42.708;23.282;2024-01-16T00:09:18;3.50;99.90
2889;DHT22;1453;42.708;23.282;2024-01-16T00:11:44;3.60;99.90
2889;DHT22;1453;42.708;23.282;2024-01-16T00:14:10;3.50;99.90
2889;DHT22;1453;42.708;23.282;2024-01-16T00:16:46;3.40;99.90
2889;DHT22;1453;42.708;23.282;2024-01-16T00:19:13;3.50;99.90
2889;DHT22;1453;42.708;23.282;2024-01-16T00:21:43;3.50;99.90
2889;DHT22;1453;42.708;23.282;2024-01-16T00:24:13;3.60;99.90
2889;DHT22;1453;42.708;23.282;2024-01-16T00:26:40;3.60;99.90
2889;DHT22;1453;42.708;23.282;2024-01-16T00:29:06;3.60;99.90
2889;DHT22;1453;42.708;23.282;2024-01-16T00:31:32;3.70;99.90
2889;DHT22;1453;42.708;23.282;2024-01-16T00:33:58;3.70;99.90
2889;DHT22;1453;42.708;23.282;2024-01-16T00:36:24;3.70;99.90
2889;DHT22;1453;42.708;23.282;2024-01-16T00:38:50;3.60;99.90
2889;DHT22;1453;42.708;23.282;2024-01-16T00:41:16;3.60;99.90
2889;DHT22;1453;42.708;23.282;2024-01-16T00:43:43;3.70;99.90
2889;DHT22;1453;42.708;23.282;2024-01-16T00:46:09;3.70;99.90
2889;DHT22;1453;42.708;23.282;2024-01-16T00:48:35;3.70;99.90
2889;DHT22;1453;42.708;23.282;2024-01-16T00:51:01;3.70;99.90
2889;DHT22;1453;42.708;23.282;2024-01-16T00:53:27;3.80;99.90
2889;DHT22;1453;42.708;23.282;2024-01-16T00:55:54;3.90;99.90
2889;DHT22;1453;42.708;23.282;2024-01-16T00:58:23;4.00;99.90
2889;DHT22;1453;42.708;23.282;2024-01-16T01:00:49;4.00;99.90
2889;DHT22;1453;42.708;23.282;2024-01-16T01:03:15;3.80;99.90
2889;DHT22;1453;42.708;23.282;2024-01-16T01:05:41;3.90;99.90
2889;DHT22;1453;42.708;23.282;2024-01-16T01:08:08;4.00;99.90
2889;DHT22;1453;42.708;23.282;2024-01-16T01:10:34;4.10;99.90
2889;DHT22;1453;42.708;23.282;2024-01-16T01:13:00;4.10;99.90
2889;DHT22;1453;42.708;23.282;2024-01-16T01:15:26;4.20;99.90
2889;DHT22;1453;42.708;23.282;2024-01-16T01:17:52;4.00;99.90
2889;DHT22;1453;42.708;23.282;2024-01-16T01:20:19;3.70;99.90
2889;DHT22;1453;42.708;23.282;2024-01-16T01:22:46;3.80;99.90
2889;DHT22;1453;42.708;23.282;2024-01-16T01:25:12;3.90;99.90
2889;DHT22;1453;42.708;23.282;2024-01-16T01:27:39;3.80;99.90
2889;DHT22;1453;42.708;23.282;2024-01-16T01:30:07;3.80;99.90
2889;DHT22;1453;42.708;23.282;2024-01-16T01:32:36;3.70;99.90
2889;DHT22;1453;42.708;23.282;2024-01-16T01:35:03;3.20;99.90
2889;DHT22;1453;42.708;23.282;2024-01-16T01:37:30;3.20;99.90
2889;DHT22;1453;42.708;23.282;2024-01-16T01:39:56;3.10;99.90
2889;DHT22;1453;42.708;23.282;2024-01-16T01:42:22;3.10;99.90
2889;DHT22;1453;42.708;23.282;2024-01-16T01:44:48;3.00;99.90
2889;DHT22;1453;42.708;23.282;2024-01-16T01:47:14;3.00;99.90
2889;DHT22;1453;42.708;23.282;2024-01-16T01:49:41;3.30;99.90
2889;DHT22;1453;42.708;23.282;2024-01-16T01:52:08;3.40;99.90
2889;DHT22;1453;42.708;23.282;2024-01-16T01:54:36;3.50;99.90
2889;DHT22;1453;42.708;23.282;2024-01-16T01:57:03;3.50;99.90
2889;DHT22;1453;42.708;23.282;2024-01-16T01:59:31;3.60;99.90
2889;DHT22;1453;42.708;23.282;2024-01-16T02:01:57;3.60;99.90
2889;DHT22;1453;42.708;23.282;2024-01-16T02:04:25;3.60;99.90
2889;DHT22;1453;42.708;23.282;2024-01-16T02:06:53;3.70;99.90
2889;DHT22;1453;42.708;23.282;2024-01-16T02:09:19;3.80;99.90
2889;DHT22;1453;42.708;23.282;2024-01-16T02:11:45;3.90;99.90
2889;DHT22;1453;42.708;23.282;2024-01-16T02:14:11;3.80;99.90
2889;DHT22;1453;42.708;23.282;2024-01-16T02:16:39;3.90;99.90
2889;DHT22;1453;42.708;23.282;2024-01-16T02:19:07;4.00;99.90
2889;DHT22;1453;42.708;23.282;2024-01-16T02:21:43;4.00;99.90
2889;DHT22;1453;42.708;23.282;2024-01-16T02:24:14;3.90;99.90
2889;DHT22;1453;42.708;23.282;2024-01-16T02:26:41;3.90;99.90
2889;DHT22;1453;42.708;23.282;2024-01-16T02:29:07;3.90;99.90
2889;DHT22;1453;42.708;23.282;2024-01-16T02:31:33;3.60;99.90
2889;DHT22;1453;42.708;23.282;2024-01-16T02:34:00;3.70;99.90
2889;DHT22;1453;42.708;23.282;2024-01-16T02:36:27;3.80;99.90
2889;DHT22;1453;42.708;23.282;2024-01-16T02:38:54;3.70;99.90
2889;DHT22;1453;42.708;23.282;2024-01-16T02:41:20;3.80;99.90
2889;DHT22;1453;42.708;23.282;2024-01-16T02:43:46;3.80;99.90
2889;DHT22;1453;42.708;23.282;2024-01-16T02:46:13;3.90;99.90
2889;DHT22;1453;42.708;23.282;2024-01-16T02:48:40;4.00;99.90
2889;DHT22;1453;42.708;23.282;2024-01-16T02:51:08;3.90;99.90
2889;DHT22;1453;42.708;23.282;2024-01-16T02:53:35;3.70;99.90
2889;DHT22;1453;42.708;23.282;2024-01-16T02:56:01;3.80;99.90
2889;DHT22;1453;42.708;23.282;2024-01-16T02:58:28;3.70;99.90
2889;DHT22;1453;42.708;23.282;2024-01-16T03:00:55;3.80;99.90
2889;DHT22;1453;42.708;23.282;2024-01-16T03:03:21;4.00;99.90
2889;DHT22;1453;42.708;23.282;2024-01-16T03:05:47;4.20;99.90
2889;DHT22;1453;42.708;23.282;2024-01-16T03:08:13;4.30;99.90
2889;DHT22;1453;42.708;23.282;2024-01-16T03:10:39;4.40;99.90
2889;DHT22;1453;42.708;23.282;2024-01-16T03:13:06;4.50;99.90
2889;DHT22;1453;42.708;23.282;2024-01-16T03:15:32;4.40;99.90
2889;DHT22;1453;42.708;23.282;2024-01-16T03:18:01;4.30;99.90
2889;DHT22;1453;42.708;23.282;2024-01-16T03:20:27;4.20;99.90
2889;DHT22;1453;42.708;23.282;2024-01-16T03:22:53;4.10;99.90
2889;DHT22;1453;42.708;23.282;2024-01-16T03:25:20;4.10;99.90
2889;DHT22;1453;42.708;23.282;2024-01-16T03:27:47;4.00;99.90
2889;DHT22;1453;42.708;23.282;2024-01-16T03:30:13;3.90;99.90
2889;DHT22;1453;42.708;23.282;2024-01-16T03:32:39;3.90;99.90
2889;DHT22;1453;42.708;23.282;2024-01-16T03:35:06;3.80;99.90
2889;DHT22;1453;42.708;23.282;2024-01-16T03:37:35;3.70;99.90
2889;DHT22;1453;42.708;23.282;2024-01-16T03:40:04;3.60;99.90
2889;DHT22;1453;42.708;23.282;2024-01-16T03:42:30;3.40;99.90
2889;DHT22;1453;42.708;23.282;2024-01-16T03:44:56;3.40;99.90
2889;DHT22;1453;42.708;23.282;2024-01-16T03:47:22;3.40;99.90
2889;DHT22;1453;42.708;23.282;2024-01-16T03:49:48;3.30;99.90
2889;DHT22;1453;42.708;23.282;2024-01-16T03:52:14;3.30;99.90
2889;DHT22;1453;42.708;23.282;2024-01-16T03:54:40;3.40;99.90
2889;DHT22;1453;42.708;23.282;2024-01-16T03:57:06;3.40;99.90
2889;DHT22;1453;42.708;23.282;2024-01-16T03:59:32;3.20;99.90
2889;DHT22;1453;42.708;23.282;2024-01-16T04:02:02;3.20;99.90
2889;DHT22;1453;42.708;23.282;2024-01-16T04:04:28;3.10;99.90
2889;DHT22;1453;42.708;23.282;2024-01-16T04:06:54;3.00;99.90
2889;DHT22;1453;42.708;23.282;2024-01-16T04:09:20;3.00;99.90
2889;DHT22;1453;42.708;23.282;2024-01-16T04:11:50;2.90;99.90
2889;DHT22;1453;42.708;23.282;2024-01-16T04:14:16;2.90;99.90
2889;DHT22;1453;42.708;23.282;2024-01-16T04:16:42;2.80;99.90
2889;DHT22;1453;42.708;23.282;2024-01-16T04:19:08;2.80;99.90
2889;DHT22;1453;42.708;23.282;2024-01-16T04:21:34;2.80;99.90
2889;DHT22;1453;42.708;23.282;2024-01-16T04:24:00;2.70;99.90
2889;DHT22;1453;42.708;23.282;2024-01-16T04:26:25;2.60;99.90
2889;DHT22;1453;42.708;23.282;2024-01-16T04:28:51;2.70;99.90
2889;DHT22;1453;42.708;23.282;2024-01-16T04:31:18;2.70;99.90
2889;DHT22;1453;42.708;23.282;2024-01-16T04:33:47;2.70;99.90
2889;DHT22;1453;42.708;23.282;2024-01-16T04:36:13;2.60;99.90
2889;DHT22;1453;42.708;23.282;2024-01-16T04:38:39;2.60;99.90
2889;DHT22;1453;42.708;23.282;2024-01-16T04:41:05;2.60;99.90
2889;DHT22;1453;42.708;23.282;2024-01-16T04:43:31;2.60;99.90
2889;DHT22;1453;42.708;23.282;2024-01-16T04:45:57;2.40;99.90
2889;DHT22;1453;42.708;23.282;2024-01-16T04:48:23;2.40;99.90
2889;DHT22;1453;42.708;23.282;2024-01-16T04:50:49;2.50;99.90
2889;DHT22;1453;42.708;23.282;2024-01-16T04:53:16;2.30;99.90
2889;DHT22;1453;42.708;23.282;2024-01-16T04:55:42;2.30;99.90
2889;DHT22;1453;42.708;23.282;2024-01-16T04:58:09;2.30;99.90
2889;DHT22;1453;42.708;23.282;2024-01-16T05:00:35;2.30;99.90
2889;DHT22;1453;42.708;23.282;2024-01-16T05:03:04;2.20;99.90
2889;DHT22;1453;42.708;23.282;2024-01-16T05:05:30;2.10;99.90
2889;DHT22;1453;42.708;23.282;2024-01-16T05:07:56;2.00;99.90
2889;DHT22;1453;42.708;23.282;2024-01-16T05:10:22;2.10;99.90
2889;DHT22;1453;42.708;23.282;2024-01-16T05:12:48;2.00;99.90
2889;DHT22;1453;42.708;23.282;2024-01-16T05:15:14;2.00;99.90
2889;DHT22;1453;42.708;23.282;2024-01-16T05:17:40;2.10;99.90
2889;DHT22;1453;42.708;23.282;2024-01-16T05:20:06;2.10;99.90
2889;DHT22;1453;42.708;23.282;2024-01-16T05:22:33;2.20;99.90
2889;DHT22;1453;42.708;23.282;2024-01-16T05:25:00;2.10;99.90
2889;DHT22;1453;42.708;23.282;2024-01-16T05:27:26;2.20;99.90
2889;DHT22;1453;42.708;23.282;2024-01-16T05:29:52;2.20;99.90
2889;DHT22;1453;42.708;23.282;2024-01-16T05:32:18;2.10;99.90
2889;DHT22;1453;42.708;23.282;2024-01-16T05:34:44;2.10;99.90
2889;DHT22;1453;42.708;23.282;2024-01-16T05:37:10;2.00;99.90
2889;DHT22;1453;42.708;23.282;2024-01-16T05:39:36;2.10;99.90
2889;DHT22;1453;42.708;23.282;2024-01-16T05:42:02;2.10;99.90
2889;DHT22;1453;42.708;23.282;2024-01-16T05:44:28;2.10;99.90
2889;DHT22;1453;42.708;23.282;2024-01-16T05:46:54;2.10;99.90
2889;DHT22;1453;42.708;23.282;2024-01-16T05:49:20;2.00;99.90
2889;DHT22;1453;42.708;23.282;2024-01-16T05:51:46;2.00;99.90
2889;DHT22;1453;42.708;23.282;2024-01-16T05:54:12;1.90;99.90
2889;DHT22;1453;42.708;23.282;2024-01-16T05:56:38;1.90;99.90
2889;DHT22;1453;42.708;23.282;2024-01-16T05:59:04;2.10;99.90
2889;DHT22;1453;42.708;23.282;2024-01-16T06:01:30;2.00;99.90
2889;DHT22;1453;42.708;23.282;2024-01-16T06:03:56;2.00;99.90
2889;DHT22;1453;42.708;23.282;2024-01-16T06:06:22;2.00;99.90
2889;DHT22;1453;42.708;23.282;2024-01-16T06:08:48;2.00;99.90
2889;DHT22;1453;42.708;23.282;2024-01-16T06:11:14;2.00;99.90
2889;DHT22;1453;42.708;23.282;2024-01-16T06:13:40;1.90;99.90
2889;DHT22;1453;42.708;23.282;2024-01-16T06:16:06;1.80;99.90
2889;DHT22;1453;42.708;23.282;2024-01-16T06:18:35;1.90;99.90
2889;DHT22;1453;42.708;23.282;2024-01-16T06:21:03;1.90;99.90
2889;DHT22;1453;42.708;23.282;2024-01-16T06:23:29;1.90;99.90
2889;DHT22;1453;42.708;23.282;2024-01-16T06:25:55;1.90;99.90
2889;DHT22;1453;42.708;23.282;2024-01-16T06:28:21;1.90;99.90
2889;DHT22;1453;42.708;23.282;2024-01-16T06:30:47;2.00;99.90
2889;DHT22;1453;42.708;23.282;2024-01-16T06:33:13;1.90;99.90
2889;DHT22;1453;42.708;23.282;2024-01-16T06:35:39;1.90;99.90
2889;DHT22;1453;42.708;23.282;2024-01-16T06:38:05;1.90;99.90
2889;DHT22;1453;42.708;23.282;2024-01-16T06:40:31;1.90;99.90
2889;DHT22;1453;42.708;23.282;2024-01-16T06:42:57;1.90;99.90
2889;DHT22;1453;42.708;23.282;2024-01-16T06:45:23;1.90;99.90
2889;DHT22;1453;42.708;23.282;2024-01-16T06:47:52;1.70;99.90
2889;DHT22;1453;42.708;23.282;2024-01-16T06:50:18;1.90;99.90
2889;DHT22;1453;42.708;23.282;2024-01-16T06:52:45;1.80;99.90
2889;DHT22;1453;42.708;23.282;2024-01-16T06:55:11;1.70;99.90
2889;DHT22;1453;42.708;23.282;2024-01-16T06:57:36;1.80;99.90
2889;DHT22;1453;42.708;23.282;2024-01-16T07:00:04;1.80;99.90
2889;DHT22;1453;42.708;23.282;2024-01-16T07:02:32;1.70;99.90
2889;DHT22;1453;42.708;23.282;2024-01-16T07:04:58;1.70;99.90
2889;DHT22;1453;42.708;23.282;2024-01-16T07:07:25;1.80;99.90
2889;DHT22;1453;42.708;23.282;2024-01-16T07:09:51;1.80;99.90
2889;DHT22;1453;42.708;23.282;2024-01-16T07:12:17;1.80;99.90
2889;DHT22;1453;42.708;23.282;2024-01-16T07:14:44;2.00;99.90
2889;DHT22;1453;42.708;23.282;2024-01-16T07:17:10;2.00;99.90
2889;DHT22;1453;42.708;23.282;2024-01-16T07:19:36;2.00;99.90
2889;DHT22;1453;42.708;23.282;2024-01-16T07:22:02;2.00;99.90
2889;DHT22;1453;42.708;23.282;2024-01-16T07:24:28;2.00;99.90
2889;DHT22;1453;42.708;23.282;2024-01-16T07:26:54;2.00;99.90
2889;DHT22;1453;42.708;23.282;2024-01-16T07:29:20;2.00;99.90
2889;DHT22;1453;42.708;23.282;2024-01-16T07:31:46;2.00;99.90
2889;DHT22;1453;42.708;23.282;2024-01-16T07:34:12;2.00;99.90
2889;DHT22;1453;42.708;23.282;2024-01-16T07:36:42;2.00;99.90
2889;DHT22;1453;42.708;23.282;2024-01-16T07:39:08;1.90;99.90
2889;DHT22;1453;42.708;23.282;2024-01-16T07:41:34;2.00;99.90
2889;DHT22;1453;42.708;23.282;2024-01-16T07:44:00;2.10;99.90
2889;DHT22;1453;42.708;23.282;2024-01-16T07:46:26;2.00;99.90
2889;DHT22;1453;42.708;23.282;2024-01-16T07:48:52;2.00;99.90
2889;DHT22;1453;42.708;23.282;2024-01-16T07:51:18;1.90;99.90
2889;DHT22;1453;42.708;23.282;2024-01-16T07:53:44;1.90;99.90
2889;DHT22;1453;42.708;23.282;2024-01-16T07:56:10;1.90;99.90
2889;DHT22;1453;42.708;23.282;2024-01-16T07:58:37;1.90;99.90
2889;DHT22;1453;42.708;23.282;2024-01-16T08:03:28;1.90;99.90
2889;DHT22;1453;42.708;23.282;2024-01-16T08:05:54;2.00;99.90
2889;DHT22;1453;42.708;23.282;2024-01-16T08:08:21;2.00;99.90
2889;DHT22;1453;42.708;23.282;2024-01-16T08:10:47;2.00;99.90
2889;DHT22;1453;42.708;23.282;2024-01-16T08:13:13;1.90;99.90
2889;DHT22;1453;42.708;23.282;2024-01-16T08:15:39;2.00;99.90
2889;DHT22;1453;42.708;23.282;2024-01-16T08:18:05;2.10;99.90
2889;DHT22;1453;42.708;23.282;2024-01-16T08:20:31;2.00;99.90
2889;DHT22;1453;42.708;23.282;2024-01-16T08:22:57;2.00;99.90
2889;DHT22;1453;42.708;23.282;2024-01-16T08:25:23;1.90;99.90
2889;DHT22;1453;42.708;23.282;2024-01-16T08:27:49;1.90;99.90
2889;DHT22;1453;42.708;23.282;2024-01-16T08:30:15;1.80;99.90
2889;DHT22;1453;42.708;23.282;2024-01-16T08:32:41;1.90;99.90
2889;DHT22;1453;42.708;23.282;2024-01-16T08:35:08;2.00;99.90
2889;DHT22;1453;42.708;23.282;2024-01-16T08:37:34;2.10;99.90
2889;DHT22;1453;42.708;23.282;2024-01-16T08:40:00;2.10;99.90
2889;DHT22;1453;42.708;23.282;2024-01-16T08:42:26;2.00;99.90
2889;DHT22;1453;42.708;23.282;2024-01-16T08:44:52;1.80;99.90
2889;DHT22;1453;42.708;23.282;2024-01-16T08:47:18;1.80;99.90
2889;DHT22;1453;42.708;23.282;2024-01-16T08:49:44;1.80;99.90
2889;DHT22;1453;42.708;23.282;2024-01-16T08:52:10;1.80;99.90
2889;DHT22;1453;42.708;23.282;2024-01-16T08:54:36;1.70;99.90
2889;DHT22;1453;42.708;23.282;2024-01-16T08:57:02;1.60;99.90
2889;DHT22;1453;42.708;23.282;2024-01-16T08:59:29;1.70;99.90
2889;DHT22;1453;42.708;23.282;2024-01-16T09:01:55;1.80;99.90
2889;DHT22;1453;42.708;23.282;2024-01-16T09:04:21;1.60;99.90
2889;DHT22;1453;42.708;23.282;2024-01-16T09:06:46;1.70;99.90
2889;DHT22;1453;42.708;23.282;2024-01-16T09:09:12;1.80;99.90
2889;DHT22;1453;42.708;23.282;2024-01-16T09:11:38;1.80;99.90
2889;DHT22;1453;42.708;23.282;2024-01-16T09:14:04;1.90;99.90
2889;DHT22;1453;42.708;23.282;2024-01-16T09:16:30;2.10;99.90
2889;DHT22;1453;42.708;23.282;2024-01-16T09:18:57;2.00;99.90
2889;DHT22;1453;42.708;23.282;2024-01-16T09:21:23;2.00;99.90
2889;DHT22;1453;42.708;23.282;2024-01-16T09:23:50;2.00;99.90
2889;DHT22;1453;42.708;23.282;2024-01-16T09:26:16;2.00;99.90
2889;DHT22;1453;42.708;23.282;2024-01-16T09:28:43;1.90;99.90
2889;DHT22;1453;42.708;23.282;2024-01-16T09:31:09;2.00;99.90
2889;DHT22;1453;42.708;23.282;2024-01-16T09:33:35;2.20;99.90
2889;DHT22;1453;42.708;23.282;2024-01-16T09:36:02;2.30;99.90
2889;DHT22;1453;42.708;23.282;2024-01-16T09:38:28;2.50;99.90
2889;DHT22;1453;42.708;23.282;2024-01-16T09:40:56;2.70;99.90
2889;DHT22;1453;42.708;23.282;2024-01-16T09:43:28;3.20;99.90
2889;DHT22;1453;42.708;23.282;2024-01-16T09:45:55;3.60;99.90
2889;DHT22;1453;42.708;23.282;2024-01-16T09:48:22;3.60;99.90
2889;DHT22;1453;42.708;23.282;2024-01-16T09:50:49;3.60;99.90
2889;DHT22;1453;42.708;23.282;2024-01-16T09:53:15;3.80;99.90
2889;DHT22;1453;42.708;23.282;2024-01-16T09:55:41;3.90;99.90
2889;DHT22;1453;42.708;23.282;2024-01-16T09:58:09;3.90;99.90
2889;DHT22;1453;42.708;23.282;2024-01-16T10:00:42;4.00;99.90
2889;DHT22;1453;42.708;23.282;2024-01-16T10:03:13;4.80;99.90
2889;DHT22;1453;42.708;23.282;2024-01-16T10:05:43;5.60;99.90
2889;DHT22;1453;42.708;23.282;2024-01-16T10:08:09;5.50;99.80
2889;DHT22;1453;42.708;23.282;2024-01-16T10:10:35;5.30;99.90
2889;DHT22;1453;42.708;23.282;2024-01-16T10:13:01;4.80;99.90
2889;DHT22;1453;42.708;23.282;2024-01-16T10:15:27;4.50;99.90
2889;DHT22;1453;42.708;23.282;2024-01-16T10:17:53;4.90;99.90
2889;DHT22;1453;42.708;23.282;2024-01-16T10:20:32;5.20;99.90
2889;DHT22;1453;42.708;23.282;2024-01-16T10:22:59;4.90;99.90
2889;DHT22;1453;42.708;23.282;2024-01-16T10:25:25;4.30;99.90
2889;DHT22;1453;42.708;23.282;2024-01-16T10:28:05;3.90;99.90
2889;DHT22;1453;42.708;23.282;2024-01-16T10:30:33;3.80;99.90
2889;DHT22;1453;42.708;23.282;2024-01-16T10:33:15;3.70;99.90
2889;DHT22;1453;42.708;23.282;2024-01-16T10:35:41;3.70;99.90
2889;DHT22;1453;42.708;23.282;2024-01-16T10:38:07;3.50;99.90
2889;DHT22;1453;42.708;23.282;2024-01-16T10:40:33;3.60;99.90
2889;DHT22;1453;42.708;23.282;2024-01-16T10:45:29;3.80;99.90
2889;DHT22;1453;42.708;23.282;2024-01-16T10:48:03;3.80;99.90
2889;DHT22;1453;42.708;23.282;2024-01-16T10:50:31;3.70;99.90
2889;DHT22;1453;42.708;23.282;2024-01-16T10:53:04;3.90;99.90
2889;DHT22;1453;42.708;23.282;2024-01-16T10:55:33;3.90;99.90
2889;DHT22;1453;42.708;23.282;2024-01-16T10:58:05;4.00;99.90
2889;DHT22;1453;42.708;23.282;2024-01-16T11:00:36;3.90;99.90
2889;DHT22;1453;42.708;23.282;2024-01-16T11:03:12;3.80;99.90
2889;DHT22;1453;42.708;23.282;2024-01-16T11:05:44;3.80;99.90
2889;DHT22;1453;42.708;23.282;2024-01-16T11:08:13;4.00;99.90
2889;DHT22;1453;42.708;23.282;2024-01-16T11:10:44;3.90;99.90
2889;DHT22;1453;42.708;23.282;2024-01-16T11:13:10;4.10;99.90
2889;DHT22;1453;42.708;23.282;2024-01-16T11:15:38;4.40;99.90
2889;DHT22;1453;42.708;23.282;2024-01-16T11:18:04;4.20;99.90
2889;DHT22;1453;42.708;23.282;2024-01-16T11:20:32;4.00;99.90
2889;DHT22;1453;42.708;23.282;2024-01-16T11:23:00;3.90;99.90
2889;DHT22;1453;42.708;23.282;2024-01-16T11:25:33;3.90;99.90
2889;DHT22;1453;42.708;23.282;2024-01-16T11:28:13;3.90;99.90
2889;DHT22;1453;42.708;23.282;2024-01-16T11:30:40;3.80;99.90
2889;DHT22;1453;42.708;23.282;2024-01-16T11:33:47;3.60;99.90
2889;DHT22;1453;42.708;23.282;2024-01-16T11:39:24;3.80;99.90
2889;DHT22;1453;42.708;23.282;2024-01-16T11:41:58;3.80;99.90
2889;DHT22;1453;42.708;23.282;2024-01-16T11:49:51;3.40;99.90
2889;DHT22;1453;42.708;23.282;2024-01-16T11:58:26;3.60;99.90
2889;DHT22;1453;42.708;23.282;2024-01-16T12:00:57;3.40;99.90
2889;DHT22;1453;42.708;23.282;2024-01-16T12:03:23;3.80;99.90
2889;DHT22;1453;42.708;23.282;2024-01-16T12:05:59;3.80;99.90
2889;DHT22;1453;42.708;23.282;2024-01-16T12:08:26;3.80;99.90
2889;DHT22;1453;42.708;23.282;2024-01-16T12:10:52;3.80;99.90
2889;DHT22;1453;42.708;23.282;2024-01-16T12:13:18;3.80;99.90
2889;DHT22;1453;42.708;23.282;2024-01-16T12:16:03;3.60;99.90
2889;DHT22;1453;42.708;23.282;2024-01-16T12:18:29;3.70;99.90
2889;DHT22;1453;42.708;23.282;2024-01-16T12:20:56;3.90;99.90
2889;DHT22;1453;42.708;23.282;2024-01-16T12:23:22;3.80;99.90
2889;DHT22;1453;42.708;23.282;2024-01-16T12:25:52;3.80;99.90
2889;DHT22;1453;42.708;23.282;2024-01-16T12:28:24;3.70;99.90
2889;DHT22;1453;42.708;23.282;2024-01-16T12:30:51;3.60;99.90
2889;DHT22;1453;42.708;23.282;2024-01-16T12:33:22;3.50;99.90
2889;DHT22;1453;42.708;23.282;2024-01-16T12:35:48;3.50;99.90
2889;DHT22;1453;42.708;23.282;2024-01-16T12:38:15;3.50;99.90
2889;DHT22;1453;42.708;23.282;2024-01-16T12:43:12;3.70;99.90
2889;DHT22;1453;42.708;23.282;2024-01-16T12:45:38;3.80;99.90
2889;DHT22;1453;42.708;23.282;2024-01-16T12:48:05;3.60;99.90
2889;DHT22;1453;42.708;23.282;2024-01-16T12:50:32;3.50;99.90
2889;DHT22;1453;42.708;23.282;2024-01-16T12:55:40;3.70;99.90
2889;DHT22;1453;42.708;23.282;2024-01-16T12:58:20;3.60;99.90
2889;DHT22;1453;42.708;23.282;2024-01-16T13:00:51;4.20;99.90
2889;DHT22;1453;42.708;23.282;2024-01-16T13:03:21;4.30;99.90
2889;DHT22;1453;42.708;23.282;2024-01-16T13:05:55;4.00;99.90
2889;DHT22;1453;42.708;23.282;2024-01-16T13:08:22;4.30;99.90
2889;DHT22;1453;42.708;23.282;2024-01-16T13:11:04;4.40;99.90
2889;DHT22;1453;42.708;23.282;2024-01-16T13:13:31;4.10;99.90
2889;DHT22;1453;42.708;23.282;2024-01-16T13:15:59;4.00;99.90
2889;DHT22;1453;42.708;23.282;2024-01-16T13:18:29;4.00;99.90
2889;DHT22;1453;42.708;23.282;2024-01-16T13:20:57;3.70;99.90
2889;DHT22;1453;42.708;23.282;2024-01-16T13:23:25;3.70;99.90
2889;DHT22;1453;42.708;23.282;2024-01-16T13:25:53;3.50;99.90
2889;DHT22;1453;42.708;23.282;2024-01-16T13:28:21;3.60;99.90
2889;DHT22;1453;42.708;23.282;2024-01-16T13:30:48;3.50;99.90
2889;DHT22;1453;42.708;23.282;2024-01-16T13:33:15;3.40;99.90
2889;DHT22;1453;42.708;23.282;2024-01-16T13:35:43;3.40;99.90
2889;DHT22;1453;42.708;23.282;2024-01-16T13:38:11;3.50;99.90
2889;DHT22;1453;42.708;23.282;2024-01-16T13:40:37;3.40;99.90
2889;DHT22;1453;42.708;23.282;2024-01-16T13:43:04;3.20;99.90
2889;DHT22;1453;42.708;23.282;2024-01-16T13:45:32;3.10;99.90
2889;DHT22;1453;42.708;23.282;2024-01-16T13:47:59;3.10;99.90
2889;DHT22;1453;42.708;23.282;2024-01-16T13:50:27;3.10;99.90
2889;DHT22;1453;42.708;23.282;2024-01-16T13:52:53;3.00;99.90
2889;DHT22;1453;42.708;23.282;2024-01-16T13:55:20;3.10;99.90
2889;DHT22;1453;42.708;23.282;2024-01-16T13:57:46;3.70;99.90
2889;DHT22;1453;42.708;23.282;2024-01-16T14:00:14;4.30;99.90
2889;DHT22;1453;42.708;23.282;2024-01-16T14:05:09;4.20;99.90
2889;DHT22;1453;42.708;23.282;2024-01-16T14:07:44;4.30;99.90
2889;DHT22;1453;42.708;23.282;2024-01-16T14:10:13;5.30;97.30
2889;DHT22;1453;42.708;23.282;2024-01-16T14:12:40;5.70;92.80
2889;DHT22;1453;42.708;23.282;2024-01-16T14:15:11;5.50;90.80
2889;DHT22;1453;42.708;23.282;2024-01-16T14:17:49;5.70;90.50
2889;DHT22;1453;42.708;23.282;2024-01-16T14:20:17;5.40;90.20
2889;DHT22;1453;42.708;23.282;2024-01-16T14:22:44;4.70;91.10
2889;DHT22;1453;42.708;23.282;2024-01-16T14:25:11;4.20;95.40
2889;DHT22;1453;42.708;23.282;2024-01-16T14:27:38;3.60;99.90
2889;DHT22;1453;42.708;23.282;2024-01-16T14:30:10;3.50;99.90
2889;DHT22;1453;42.708;23.282;2024-01-16T14:32:44;3.20;99.90
2889;DHT22;1453;42.708;23.282;2024-01-16T14:35:11;3.20;99.90
2889;DHT22;1453;42.708;23.282;2024-01-16T14:37:40;3.00;99.90
2889;DHT22;1453;42.708;23.282;2024-01-16T14:40:07;3.00;99.90
2889;DHT22;1453;42.708;23.282;2024-01-16T14:42:54;2.90;99.90
2889;DHT22;1453;42.708;23.282;2024-01-16T14:45:25;2.80;99.90
2889;DHT22;1453;42.708;23.282;2024-01-16T14:47:53;2.70;99.90
2889;DHT22;1453;42.708;23.282;2024-01-16T14:50:20;2.80;99.90
2889;DHT22;1453;42.708;23.282;2024-01-16T14:52:48;2.50;99.90
2889;DHT22;1453;42.708;23.282;2024-01-16T14:55:14;2.40;99.90
2889;DHT22;1453;42.708;23.282;2024-01-16T14:57:41;2.50;99.90
2889;DHT22;1453;42.708;23.282;2024-01-16T15:00:13;2.30;99.90
2889;DHT22;1453;42.708;23.282;2024-01-16T15:02:51;2.30;99.90
2889;DHT22;1453;42.708;23.282;2024-01-16T15:05:19;2.30;99.90
2889;DHT22;1453;42.708;23.282;2024-01-16T15:07:47;2.40;99.90
2889;DHT22;1453;42.708;23.282;2024-01-16T15:10:13;2.20;99.90
2889;DHT22;1453;42.708;23.282;2024-01-16T15:12:43;2.30;99.90
2889;DHT22;1453;42.708;23.282;2024-01-16T15:15:11;2.10;99.90
2889;DHT22;1453;42.708;23.282;2024-01-16T15:17:39;2.10;99.90
2889;DHT22;1453;42.708;23.282;2024-01-16T15:20:06;2.20;99.90
2889;DHT22;1453;42.708;23.282;2024-01-16T15:22:40;2.20;99.90
2889;DHT22;1453;42.708;23.282;2024-01-16T15:25:09;2.30;99.90
2889;DHT22;1453;42.708;23.282;2024-01-16T15:27:35;2.30;99.90
2889;DHT22;1453;42.708;23.282;2024-01-16T15:30:03;2.20;99.90
2889;DHT22;1453;42.708;23.282;2024-01-16T15:32:30;2.30;99.90
2889;DHT22;1453;42.708;23.282;2024-01-16T15:34:57;2.30;99.90
2889;DHT22;1453;42.708;23.282;2024-01-16T15:37:23;2.40;99.90
2889;DHT22;1453;42.708;23.282;2024-01-16T15:39:49;2.10;99.90
2889;DHT22;1453;42.708;23.282;2024-01-16T15:42:15;2.10;99.90
2889;DHT22;1453;42.708;23.282;2024-01-16T15:44:43;2.00;99.90
2889;DHT22;1453;42.708;23.282;2024-01-16T15:47:09;1.70;99.90
2889;DHT22;1453;42.708;23.282;2024-01-16T15:49:35;1.70;99.90
2889;DHT22;1453;42.708;23.282;2024-01-16T15:52:02;1.60;99.90
2889;DHT22;1453;42.708;23.282;2024-01-16T15:54:29;1.80;99.90
2889;DHT22;1453;42.708;23.282;2024-01-16T15:56:58;1.90;99.90
2889;DHT22;1453;42.708;23.282;2024-01-16T15:59:24;1.80;99.90
2889;DHT22;1453;42.708;23.282;2024-01-16T16:01:51;1.70;99.90
2889;DHT22;1453;42.708;23.282;2024-01-16T16:04:17;1.60;99.90
2889;DHT22;1453;42.708;23.282;2024-01-16T16:06:43;1.60;99.90
2889;DHT22;1453;42.708;23.282;2024-01-16T16:09:11;1.50;99.90
2889;DHT22;1453;42.708;23.282;2024-01-16T16:11:38;1.40;99.90
2889;DHT22;1453;42.708;23.282;2024-01-16T16:14:13;1.40;99.90
2889;DHT22;1453;42.708;23.282;2024-01-16T16:16:43;1.30;99.90
2889;DHT22;1453;42.708;23.282;2024-01-16T16:19:10;1.30;99.90
2889;DHT22;1453;42.708;23.282;2024-01-16T16:21:36;1.40;99.90
2889;DHT22;1453;42.708;23.282;2024-01-16T16:24:02;1.50;99.90
2889;DHT22;1453;42.708;23.282;2024-01-16T16:29:07;1.60;99.90
2889;DHT22;1453;42.708;23.282;2024-01-16T16:31:38;1.40;99.90
2889;DHT22;1453;42.708;23.282;2024-01-16T16:34:09;1.40;99.90